sensor_id;sensor_type;location;lat;lon;timestamp;pressure;altitude;pressure_sealevel;temperature;humidity
54453;BME280;40363;52.270;10.546;2022-11-04T00:01:33;75556.25;;;-147.06;74.43
54453;BME280;40363;52.270;10.546;2022-11-04T00:04:01;75548.03;;;-147.06;74.29
54453;BME280;40363;52.270;10.546;2022-11-04T00:06:28;75552.16;;;-147.06;74.16
54453;BME280;40363;52.270;10.546;2022-11-04T00:08:56;75543.94;;;-147.06;74.31
54453;BME280;40363;52.270;10.546;2022-11-04T00:11:23;75548.03;;;-147.06;74.32
54453;BME280;40363;52.270;10.546;2022-11-04T00:14:09;75548.03;;;-147.06;74.62
54453;BME280;40363;52.270;10.546;2022-11-04T00:16:36;75552.16;;;-147.06;74.68
54453;BME280;40363;52.270;10.546;2022-11-04T00:19:21;75543.94;;;-147.06;74.74
54453;BME280;40363;52.270;10.546;2022-11-04T00:21:48;75541.88;;;-147.06;74.89
54453;BME280;40363;52.270;10.546;2022-11-04T00:24:33;75552.16;;;-147.06;75.06
54453;BME280;40363;52.270;10.546;2022-11-04T00:27:18;75541.88;;;-147.06;75.14
54453;BME280;40363;52.270;10.546;2022-11-04T00:30:04;75541.88;;;-147.06;74.95
54453;BME280;40363;52.270;10.546;2022-11-04T00:32:32;75537.78;;;-147.06;74.79
54453;BME280;40363;52.270;10.546;2022-11-04T00:35:19;75535.72;;;-147.06;74.47
54453;BME280;40363;52.270;10.546;2022-11-04T00:37:46;75533.66;;;-147.06;74.88
54453;BME280;40363;52.270;10.546;2022-11-04T00:40:15;75535.72;;;-147.06;74.60
54453;BME280;40363;52.270;10.546;2022-11-04T00:42:43;75531.59;;;-147.06;74.59
54453;BME280;40363;52.270;10.546;2022-11-04T00:45:10;75546.00;;;-147.06;74.52
54453;BME280;40363;52.270;10.546;2022-11-04T00:47:37;75546.00;;;-147.06;74.29
54453;BME280;40363;52.270;10.546;2022-11-04T00:50:05;75548.03;;;-147.06;74.08
54453;BME280;40363;52.270;10.546;2022-11-04T00:52:33;75548.03;;;-147.06;74.36
54453;BME280;40363;52.270;10.546;2022-11-04T00:54:59;75543.94;;;-147.06;74.60
54453;BME280;40363;52.270;10.546;2022-11-04T00:57:26;75543.94;;;-147.06;74.63
54453;BME280;40363;52.270;10.546;2022-11-04T00:59:53;75525.44;;;-147.06;74.55
54453;BME280;40363;52.270;10.546;2022-11-04T01:02:19;75541.88;;;-147.06;74.75
54453;BME280;40363;52.270;10.546;2022-11-04T01:04:46;75552.16;;;-147.06;74.81
54453;BME280;40363;52.270;10.546;2022-11-04T01:07:13;75548.03;;;-147.06;74.74
54453;BME280;40363;52.270;10.546;2022-11-04T01:09:41;75543.94;;;-147.06;74.55
54453;BME280;40363;52.270;10.546;2022-11-04T01:12:07;75535.72;;;-147.06;74.13
54453;BME280;40363;52.270;10.546;2022-11-04T01:14:34;75552.16;;;-147.06;74.53
54453;BME280;40363;52.270;10.546;2022-11-04T01:17:01;75554.22;;;-147.06;74.61
54453;BME280;40363;52.270;10.546;2022-11-04T01:19:27;75556.25;;;-147.06;74.78
54453;BME280;40363;52.270;10.546;2022-11-04T01:21:54;75558.31;;;-147.06;74.97
54453;BME280;40363;52.270;10.546;2022-11-04T01:24:21;75558.31;;;-147.06;75.29
54453;BME280;40363;52.270;10.546;2022-11-04T01:26:49;75552.16;;;-147.06;75.18
54453;BME280;40363;52.270;10.546;2022-11-04T01:29:15;75556.25;;;-147.06;75.40
54453;BME280;40363;52.270;10.546;2022-11-04T01:31:42;75556.25;;;-147.06;75.39
54453;BME280;40363;52.270;10.546;2022-11-04T01:34:08;75550.09;;;-147.06;75.09
54453;BME280;40363;52.270;10.546;2022-11-04T01:36:35;75543.94;;;-147.06;75.04
54453;BME280;40363;52.270;10.546;2022-11-04T01:39:02;75535.72;;;-147.06;75.14
54453;BME280;40363;52.270;10.546;2022-11-04T01:41:32;75546.00;;;-147.06;75.25
54453;BME280;40363;52.270;10.546;2022-11-04T01:44:02;75546.00;;;-147.06;75.27
54453;BME280;40363;52.270;10.546;2022-11-04T01:46:36;75533.66;;;-147.06;75.00
54453;BME280;40363;52.270;10.546;2022-11-04T01:49:16;75535.72;;;-147.06;75.27
54453;BME280;40363;52.270;10.546;2022-11-04T01:51:48;75535.72;;;-147.06;75.91
54453;BME280;40363;52.270;10.546;2022-11-04T01:54:16;75548.03;;;-147.06;76.40
54453;BME280;40363;52.270;10.546;2022-11-04T01:56:45;75543.94;;;-147.06;77.16
54453;BME280;40363;52.270;10.546;2022-11-04T01:59:18;75558.31;;;-147.06;78.52
54453;BME280;40363;52.270;10.546;2022-11-04T02:01:46;75568.59;;;-147.06;79.51
54453;BME280;40363;52.270;10.546;2022-11-04T02:04:13;75578.88;;;-147.06;81.34
54453;BME280;40363;52.270;10.546;2022-11-04T02:06:54;75591.19;;;-147.06;83.72
54453;BME280;40363;52.270;10.546;2022-11-04T02:09:22;75601.47;;;-147.06;84.28
54453;BME280;40363;52.270;10.546;2022-11-04T02:11:49;75615.84;;;-147.06;86.23
54453;BME280;40363;52.270;10.546;2022-11-04T02:14:35;75624.06;;;-147.06;88.02
54453;BME280;40363;52.270;10.546;2022-11-04T02:17:09;75626.13;;;-147.06;90.66
54453;BME280;40363;52.270;10.546;2022-11-04T02:22:57;75654.91;;;-147.06;93.04
54453;BME280;40363;52.270;10.546;2022-11-04T02:25:48;75650.78;;;-147.06;93.54
54453;BME280;40363;52.270;10.546;2022-11-04T02:28:36;75650.78;;;-147.06;94.11
54453;BME280;40363;52.270;10.546;2022-11-04T02:31:11;75659.00;;;-147.06;94.40
54453;BME280;40363;52.270;10.546;2022-11-04T02:33:41;75669.28;;;-147.06;92.60
54453;BME280;40363;52.270;10.546;2022-11-04T02:36:20;75663.13;;;-147.06;92.68
54453;BME280;40363;52.270;10.546;2022-11-04T02:38:51;75665.16;;;-147.06;92.93
54453;BME280;40363;52.270;10.546;2022-11-04T02:41:29;75650.78;;;-147.06;92.36
54453;BME280;40363;52.270;10.546;2022-11-04T02:44:10;75654.91;;;-147.06;92.82
54453;BME280;40363;52.270;10.546;2022-11-04T02:46:46;75659.00;;;-147.06;94.49
54453;BME280;40363;52.270;10.546;2022-11-04T02:49:19;75650.78;;;-147.06;94.98
54453;BME280;40363;52.270;10.546;2022-11-04T02:51:51;75659.00;;;-147.06;95.96
54453;BME280;40363;52.270;10.546;2022-11-04T02:54:24;75650.78;;;-147.06;96.67
54453;BME280;40363;52.270;10.546;2022-11-04T02:56:55;75654.91;;;-147.06;97.03
54453;BME280;40363;52.270;10.546;2022-11-04T02:59:31;75656.94;;;-147.06;97.29
54453;BME280;40363;52.270;10.546;2022-11-04T03:02:04;75656.94;;;-147.06;97.97
54453;BME280;40363;52.270;10.546;2022-11-04T03:04:36;75681.63;;;-147.06;99.00
54453;BME280;40363;52.270;10.546;2022-11-04T03:07:06;75685.72;;;-147.06;99.75
54453;BME280;40363;52.270;10.546;2022-11-04T03:09:34;75689.84;;;-147.06;99.97
54453;BME280;40363;52.270;10.546;2022-11-04T03:12:06;75679.56;;;-147.06;100.00
54453;BME280;40363;52.270;10.546;2022-11-04T03:14:36;75679.56;;;-147.06;100.00
54453;BME280;40363;52.270;10.546;2022-11-04T03:17:09;75687.78;;;-147.06;100.00
54453;BME280;40363;52.270;10.546;2022-11-04T03:19:43;75677.50;;;-147.06;100.00
54453;BME280;40363;52.270;10.546;2022-11-04T03:22:14;75685.72;;;-147.06;100.00
54453;BME280;40363;52.270;10.546;2022-11-04T03:24:44;75675.44;;;-147.06;100.00
54453;BME280;40363;52.270;10.546;2022-11-04T03:27:17;75671.34;;;-147.06;100.00
54453;BME280;40363;52.270;10.546;2022-11-04T03:29:54;75681.63;;;-147.06;100.00
54453;BME280;40363;52.270;10.546;2022-11-04T03:32:25;75669.28;;;-147.06;100.00
54453;BME280;40363;52.270;10.546;2022-11-04T03:34:57;75687.78;;;-147.06;100.00
54453;BME280;40363;52.270;10.546;2022-11-04T03:37:24;75681.63;;;-147.06;100.00
54453;BME280;40363;52.270;10.546;2022-11-04T03:39:50;75675.44;;;-147.06;100.00
54453;BME280;40363;52.270;10.546;2022-11-04T03:42:18;75661.06;;;-147.06;100.00
54453;BME280;40363;52.270;10.546;2022-11-04T03:44:47;75663.13;;;-147.06;100.00
54453;BME280;40363;52.270;10.546;2022-11-04T03:47:14;75659.00;;;-147.06;100.00
54453;BME280;40363;52.270;10.546;2022-11-04T03:49:44;75644.63;;;-147.06;100.00
54453;BME280;40363;52.270;10.546;2022-11-04T03:52:11;75650.78;;;-147.06;100.00
54453;BME280;40363;52.270;10.546;2022-11-04T03:54:38;75650.78;;;-147.06;100.00
54453;BME280;40363;52.270;10.546;2022-11-04T03:57:16;75650.78;;;-147.06;100.00
54453;BME280;40363;52.270;10.546;2022-11-04T04:00:00;75656.94;;;-147.06;99.73
54453;BME280;40363;52.270;10.546;2022-11-04T04:05:21;75630.25;;;-147.06;99.23
54453;BME280;40363;52.270;10.546;2022-11-04T04:07:53;75634.34;;;-147.06;98.69
54453;BME280;40363;52.270;10.546;2022-11-04T04:10:26;75638.47;;;-147.06;98.31
54453;BME280;40363;52.270;10.546;2022-11-04T04:13:22;75642.56;;;-147.06;96.76
54453;BME280;40363;52.270;10.546;2022-11-04T04:15:57;75642.56;;;-147.06;96.57
54453;BME280;40363;52.270;10.546;2022-11-04T04:18:29;75638.47;;;-147.06;95.27
54453;BME280;40363;52.270;10.546;2022-11-04T04:21:01;75642.56;;;-147.06;95.18
54453;BME280;40363;52.270;10.546;2022-11-04T04:23:31;75652.84;;;-147.06;95.30
54453;BME280;40363;52.270;10.546;2022-11-04T04:26:18;75659.00;;;-147.06;95.04
54453;BME280;40363;52.270;10.546;2022-11-04T04:29:04;75671.34;;;-147.06;94.69
54453;BME280;40363;52.270;10.546;2022-11-04T04:31:34;75663.13;;;-147.06;93.89
54453;BME280;40363;52.270;10.546;2022-11-04T04:34:23;75671.34;;;-147.06;92.56
54453;BME280;40363;52.270;10.546;2022-11-04T04:36:56;75661.06;;;-147.06;92.11
54453;BME280;40363;52.270;10.546;2022-11-04T04:39:30;75679.56;;;-147.06;91.85
54453;BME280;40363;52.270;10.546;2022-11-04T04:42:15;75683.66;;;-147.06;91.93
54453;BME280;40363;52.270;10.546;2022-11-04T04:45:01;75689.84;;;-147.06;91.06
54453;BME280;40363;52.270;10.546;2022-11-04T04:47:39;75689.84;;;-147.06;89.92
54453;BME280;40363;52.270;10.546;2022-11-04T04:50:08;75696.00;;;-147.06;88.79
54453;BME280;40363;52.270;10.546;2022-11-04T04:52:38;75698.06;;;-147.06;88.47
54453;BME280;40363;52.270;10.546;2022-11-04T04:55:07;75704.22;;;-147.06;87.26
54453;BME280;40363;52.270;10.546;2022-11-04T04:57:33;75704.22;;;-147.06;86.82
54453;BME280;40363;52.270;10.546;2022-11-04T05:00:00;75704.22;;;-147.06;86.60
54453;BME280;40363;52.270;10.546;2022-11-04T05:02:27;75702.16;;;-147.06;86.76
54453;BME280;40363;52.270;10.546;2022-11-04T05:04:54;75718.59;;;-147.06;86.58
54453;BME280;40363;52.270;10.546;2022-11-04T05:07:21;75714.50;;;-147.06;86.15
54453;BME280;40363;52.270;10.546;2022-11-04T05:09:49;75724.75;;;-147.06;86.30
54453;BME280;40363;52.270;10.546;2022-11-04T05:12:15;75724.75;;;-147.06;86.31
54453;BME280;40363;52.270;10.546;2022-11-04T05:14:42;75730.94;;;-147.06;86.02
54453;BME280;40363;52.270;10.546;2022-11-04T05:17:09;75749.44;;;-147.06;86.08
54453;BME280;40363;52.270;10.546;2022-11-04T05:19:36;75745.31;;;-147.06;86.20
54453;BME280;40363;52.270;10.546;2022-11-04T05:22:03;75749.44;;;-147.06;85.67
54453;BME280;40363;52.270;10.546;2022-11-04T05:24:29;75757.66;;;-147.06;85.56
54453;BME280;40363;52.270;10.546;2022-11-04T05:26:58;75757.66;;;-147.06;85.34
54453;BME280;40363;52.270;10.546;2022-11-04T05:29:25;75763.81;;;-147.06;84.73
54453;BME280;40363;52.270;10.546;2022-11-04T05:31:51;75763.81;;;-147.06;85.00
54453;BME280;40363;52.270;10.546;2022-11-04T05:34:18;75763.81;;;-147.06;84.97
54453;BME280;40363;52.270;10.546;2022-11-04T05:36:44;75765.88;;;-147.06;84.63
54453;BME280;40363;52.270;10.546;2022-11-04T05:39:12;75774.09;;;-147.06;84.49
54453;BME280;40363;52.270;10.546;2022-11-04T05:41:38;75780.25;;;-147.06;84.42
54453;BME280;40363;52.270;10.546;2022-11-04T05:44:07;75786.41;;;-147.06;84.59
54453;BME280;40363;52.270;10.546;2022-11-04T05:46:34;75798.75;;;-147.06;84.51
54453;BME280;40363;52.270;10.546;2022-11-04T05:49:01;75798.75;;;-147.06;83.63
54453;BME280;40363;52.270;10.546;2022-11-04T05:51:28;75798.75;;;-147.06;83.18
54453;BME280;40363;52.270;10.546;2022-11-04T05:53:55;75817.25;;;-147.06;83.25
54453;BME280;40363;52.270;10.546;2022-11-04T05:56:22;75813.13;;;-147.06;82.87
54453;BME280;40363;52.270;10.546;2022-11-04T05:58:48;75806.97;;;-147.06;82.55
54453;BME280;40363;52.270;10.546;2022-11-04T06:01:25;75825.47;;;-147.06;82.84
54453;BME280;40363;52.270;10.546;2022-11-04T06:03:53;75827.50;;;-147.06;81.83
54453;BME280;40363;52.270;10.546;2022-11-04T06:06:21;75846.00;;;-147.06;82.44
54453;BME280;40363;52.270;10.546;2022-11-04T06:08:48;75852.19;;;-147.06;82.49
54453;BME280;40363;52.270;10.546;2022-11-04T06:11:15;75862.44;;;-147.06;82.30
54453;BME280;40363;52.270;10.546;2022-11-04T06:13:42;75868.63;;;-147.06;82.44
54453;BME280;40363;52.270;10.546;2022-11-04T06:16:08;75883.00;;;-147.06;82.06
54453;BME280;40363;52.270;10.546;2022-11-04T06:18:36;75887.13;;;-147.06;82.30
54453;BME280;40363;52.270;10.546;2022-11-04T06:21:19;75899.44;;;-147.06;82.31
54453;BME280;40363;52.270;10.546;2022-11-04T06:23:47;75895.34;;;-147.06;82.19
54453;BME280;40363;52.270;10.546;2022-11-04T06:26:14;75874.78;;;-147.06;81.40
54453;BME280;40363;52.270;10.546;2022-11-04T06:28:41;75850.13;;;-147.06;81.16
54453;BME280;40363;52.270;10.546;2022-11-04T06:31:09;75862.44;;;-147.06;81.07
54453;BME280;40363;52.270;10.546;2022-11-04T06:33:37;75876.84;;;-147.06;81.29
54453;BME280;40363;52.270;10.546;2022-11-04T06:36:06;75883.00;;;-147.06;81.60
54453;BME280;40363;52.270;10.546;2022-11-04T06:38:34;75893.28;;;-147.06;80.76
54453;BME280;40363;52.270;10.546;2022-11-04T06:41:01;75909.72;;;-147.06;80.81
54453;BME280;40363;52.270;10.546;2022-11-04T06:43:28;75922.06;;;-147.06;80.86
54453;BME280;40363;52.270;10.546;2022-11-04T06:45:55;75917.94;;;-147.06;80.66
54453;BME280;40363;52.270;10.546;2022-11-04T06:48:22;75909.72;;;-147.06;80.44
54453;BME280;40363;52.270;10.546;2022-11-04T06:50:50;75917.94;;;-147.06;80.75
54453;BME280;40363;52.270;10.546;2022-11-04T06:53:17;75920.00;;;-147.06;81.88
54453;BME280;40363;52.270;10.546;2022-11-04T06:55:44;75917.94;;;-147.06;80.99
54453;BME280;40363;52.270;10.546;2022-11-04T06:58:11;75913.81;;;-147.06;82.10
54453;BME280;40363;52.270;10.546;2022-11-04T07:00:37;75891.22;;;-147.06;81.75
54453;BME280;40363;52.270;10.546;2022-11-04T07:03:04;75889.16;;;-147.06;80.80
54453;BME280;40363;52.270;10.546;2022-11-04T07:05:32;75885.06;;;-147.06;81.01
54453;BME280;40363;52.270;10.546;2022-11-04T07:08:00;75874.78;;;-147.06;80.71
54453;BME280;40363;52.270;10.546;2022-11-04T07:10:27;75876.84;;;-147.06;80.83
54453;BME280;40363;52.270;10.546;2022-11-04T07:12:54;75878.91;;;-147.06;81.05
54453;BME280;40363;52.270;10.546;2022-11-04T07:15:21;75876.84;;;-147.06;81.37
54453;BME280;40363;52.270;10.546;2022-11-04T07:17:47;75876.84;;;-147.06;81.60
54453;BME280;40363;52.270;10.546;2022-11-04T07:20:14;75872.72;;;-147.06;82.08
54453;BME280;40363;52.270;10.546;2022-11-04T07:22:41;75876.84;;;-147.06;82.24
54453;BME280;40363;52.270;10.546;2022-11-04T07:25:09;75872.72;;;-147.06;82.31
54453;BME280;40363;52.270;10.546;2022-11-04T07:27:35;75887.13;;;-147.06;82.26
54453;BME280;40363;52.270;10.546;2022-11-04T07:30:04;75880.94;;;-147.06;81.89
54453;BME280;40363;52.270;10.546;2022-11-04T07:32:31;75895.34;;;-147.06;81.11
54453;BME280;40363;52.270;10.546;2022-11-04T07:34:58;75891.22;;;-147.06;81.10
54453;BME280;40363;52.270;10.546;2022-11-04T07:37:24;75893.28;;;-147.06;80.23
54453;BME280;40363;52.270;10.546;2022-11-04T07:39:51;75893.28;;;-147.06;80.27
54453;BME280;40363;52.270;10.546;2022-11-04T07:42:19;75899.44;;;-147.06;80.08
54453;BME280;40363;52.270;10.546;2022-11-04T07:44:46;75891.22;;;-147.06;79.56
54453;BME280;40363;52.270;10.546;2022-11-04T07:47:12;75897.38;;;-147.06;78.99
54453;BME280;40363;52.270;10.546;2022-11-04T07:49:39;75893.28;;;-147.06;79.02
54453;BME280;40363;52.270;10.546;2022-11-04T07:52:05;75885.06;;;-147.06;78.80
54453;BME280;40363;52.270;10.546;2022-11-04T07:54:33;75880.94;;;-147.06;78.46
54453;BME280;40363;52.270;10.546;2022-11-04T07:56:59;75885.06;;;-147.06;78.03
54453;BME280;40363;52.270;10.546;2022-11-04T07:59:28;75866.56;;;-147.06;78.03
54453;BME280;40363;52.270;10.546;2022-11-04T08:01:54;75868.63;;;-147.06;77.19
54453;BME280;40363;52.270;10.546;2022-11-04T08:04:21;75864.50;;;-147.06;76.89
54453;BME280;40363;52.270;10.546;2022-11-04T08:06:48;75878.91;;;-147.06;76.86
54453;BME280;40363;52.270;10.546;2022-11-04T08:09:14;75880.94;;;-147.06;77.16
54453;BME280;40363;52.270;10.546;2022-11-04T08:11:42;75874.78;;;-147.06;76.55
54453;BME280;40363;52.270;10.546;2022-11-04T08:14:09;75880.94;;;-147.06;77.04
54453;BME280;40363;52.270;10.546;2022-11-04T08:16:37;75876.84;;;-147.06;76.57
54453;BME280;40363;52.270;10.546;2022-11-04T08:19:03;75876.84;;;-147.06;76.27
54453;BME280;40363;52.270;10.546;2022-11-04T08:21:31;75872.72;;;-147.06;76.13
54453;BME280;40363;52.270;10.546;2022-11-04T08:23:59;75868.63;;;-147.06;75.68
54453;BME280;40363;52.270;10.546;2022-11-04T08:26:27;75868.63;;;-147.06;75.22
54453;BME280;40363;52.270;10.546;2022-11-04T08:28:54;75868.63;;;-147.06;75.19
54453;BME280;40363;52.270;10.546;2022-11-04T08:31:22;75870.66;;;-147.06;74.65
54453;BME280;40363;52.270;10.546;2022-11-04T08:33:51;75872.72;;;-147.06;75.27
54453;BME280;40363;52.270;10.546;2022-11-04T08:36:21;75868.63;;;-147.06;75.30
54453;BME280;40363;52.270;10.546;2022-11-04T08:38:48;75876.84;;;-147.06;74.13
54453;BME280;40363;52.270;10.546;2022-11-04T08:41:18;75880.94;;;-147.06;74.99
54453;BME280;40363;52.270;10.546;2022-11-04T08:43:45;75876.84;;;-147.06;74.68
54453;BME280;40363;52.270;10.546;2022-11-04T08:46:13;75856.28;;;-147.06;74.40
54453;BME280;40363;52.270;10.546;2022-11-04T08:48:40;75831.63;;;-147.06;74.07
54453;BME280;40363;52.270;10.546;2022-11-04T08:51:13;75802.84;;;-147.06;73.92
54453;BME280;40363;52.270;10.546;2022-11-04T08:53:41;75809.03;;;-147.06;72.34
54453;BME280;40363;52.270;10.546;2022-11-04T08:56:09;75800.81;;;-147.06;72.38
54453;BME280;40363;52.270;10.546;2022-11-04T08:58:36;75786.41;;;-147.06;72.50
54453;BME280;40363;52.270;10.546;2022-11-04T09:01:03;75796.69;;;-147.06;71.97
54453;BME280;40363;52.270;10.546;2022-11-04T09:03:31;75798.75;;;-147.06;72.14
54453;BME280;40363;52.270;10.546;2022-11-04T09:05:59;75811.06;;;-147.06;72.21
54453;BME280;40363;52.270;10.546;2022-11-04T09:08:27;75815.19;;;-147.06;72.46
54453;BME280;40363;52.270;10.546;2022-11-04T09:10:53;75821.34;;;-147.06;72.44
54453;BME280;40363;52.270;10.546;2022-11-04T09:13:20;75815.19;;;-147.06;72.63
54453;BME280;40363;52.270;10.546;2022-11-04T09:15:47;75798.75;;;-147.06;72.86
54453;BME280;40363;52.270;10.546;2022-11-04T09:18:14;75792.59;;;-147.06;72.43
54453;BME280;40363;52.270;10.546;2022-11-04T09:20:41;75786.41;;;-147.06;73.62
54453;BME280;40363;52.270;10.546;2022-11-04T09:23:08;75790.53;;;-147.06;72.78
54453;BME280;40363;52.270;10.546;2022-11-04T09:25:36;75782.31;;;-147.06;71.80
54453;BME280;40363;52.270;10.546;2022-11-04T09:28:03;75782.31;;;-147.06;71.58
54453;BME280;40363;52.270;10.546;2022-11-04T09:30:30;75782.31;;;-147.06;71.71
54453;BME280;40363;52.270;10.546;2022-11-04T09:32:57;75786.41;;;-147.06;71.78
54453;BME280;40363;52.270;10.546;2022-11-04T09:35:24;75794.63;;;-147.06;71.92
54453;BME280;40363;52.270;10.546;2022-11-04T09:37:51;75788.47;;;-147.06;72.01
54453;BME280;40363;52.270;10.546;2022-11-04T09:40:21;75780.25;;;-147.06;72.24
54453;BME280;40363;52.270;10.546;2022-11-04T09:43:03;75774.09;;;-147.06;72.61
54453;BME280;40363;52.270;10.546;2022-11-04T09:45:38;75767.91;;;-147.06;72.17
54453;BME280;40363;52.270;10.546;2022-11-04T09:48:10;75763.81;;;-147.06;71.67
54453;BME280;40363;52.270;10.546;2022-11-04T09:50:43;75753.53;;;-147.06;71.22
54453;BME280;40363;52.270;10.546;2022-11-04T09:53:15;75735.03;;;-147.06;70.48
54453;BME280;40363;52.270;10.546;2022-11-04T09:55:49;75733.00;;;-147.06;69.83
54453;BME280;40363;52.270;10.546;2022-11-04T09:58:20;75708.31;;;-147.06;69.59
54453;BME280;40363;52.270;10.546;2022-11-04T10:00:51;75700.09;;;-147.06;68.91
54453;BME280;40363;52.270;10.546;2022-11-04T10:03:35;75683.66;;;-147.06;68.45
54453;BME280;40363;52.270;10.546;2022-11-04T10:06:18;75675.44;;;-147.06;68.07
54453;BME280;40363;52.270;10.546;2022-11-04T10:09:02;75673.41;;;-147.06;67.89
54453;BME280;40363;52.270;10.546;2022-11-04T10:11:39;75673.41;;;-147.06;67.86
54453;BME280;40363;52.270;10.546;2022-11-04T10:14:23;75685.72;;;-147.06;67.94
54453;BME280;40363;52.270;10.546;2022-11-04T10:17:04;75673.41;;;-147.06;67.73
54453;BME280;40363;52.270;10.546;2022-11-04T10:19:45;75683.66;;;-147.06;67.22
54453;BME280;40363;52.270;10.546;2022-11-04T10:22:22;75704.22;;;-147.06;67.30
54453;BME280;40363;52.270;10.546;2022-11-04T10:25:02;75710.38;;;-147.06;67.13
54453;BME280;40363;52.270;10.546;2022-11-04T10:27:36;75687.78;;;-147.06;66.85
54453;BME280;40363;52.270;10.546;2022-11-04T10:30:13;75704.22;;;-147.06;67.13
54453;BME280;40363;52.270;10.546;2022-11-04T10:32:51;75712.44;;;-147.06;66.54
54453;BME280;40363;52.270;10.546;2022-11-04T10:35:26;75708.31;;;-147.06;65.79
54453;BME280;40363;52.270;10.546;2022-11-04T10:37:54;75712.44;;;-147.06;65.69
54453;BME280;40363;52.270;10.546;2022-11-04T10:40:26;75712.44;;;-147.06;65.01
54453;BME280;40363;52.270;10.546;2022-11-04T10:42:57;75720.66;;;-147.06;64.95
54453;BME280;40363;52.270;10.546;2022-11-04T10:45:33;75735.03;;;-147.06;64.80
54453;BME280;40363;52.270;10.546;2022-11-04T10:48:05;75730.94;;;-147.06;64.79
54453;BME280;40363;52.270;10.546;2022-11-04T10:50:35;75759.69;;;-147.06;65.33
54453;BME280;40363;52.270;10.546;2022-11-04T10:53:10;75749.44;;;-147.06;65.63
54453;BME280;40363;52.270;10.546;2022-11-04T10:55:43;75765.88;;;-147.06;65.30
54453;BME280;40363;52.270;10.546;2022-11-04T10:58:17;75780.25;;;-147.06;65.70
54453;BME280;40363;52.270;10.546;2022-11-04T11:00:47;75769.97;;;-147.06;65.56
54453;BME280;40363;52.270;10.546;2022-11-04T11:03:25;75765.88;;;-147.06;65.25
54453;BME280;40363;52.270;10.546;2022-11-04T11:05:52;75755.59;;;-147.06;65.87
54453;BME280;40363;52.270;10.546;2022-11-04T11:08:28;75722.72;;;-147.06;65.39
54453;BME280;40363;52.270;10.546;2022-11-04T11:10:56;75716.53;;;-147.06;65.69
54453;BME280;40363;52.270;10.546;2022-11-04T11:13:24;75710.38;;;-147.06;65.02
54453;BME280;40363;52.270;10.546;2022-11-04T11:16:04;75706.28;;;-147.06;64.78
54453;BME280;40363;52.270;10.546;2022-11-04T11:18:31;75708.31;;;-147.06;65.20
54453;BME280;40363;52.270;10.546;2022-11-04T11:21:06;75724.75;;;-147.06;65.44
54453;BME280;40363;52.270;10.546;2022-11-04T11:23:39;75735.03;;;-147.06;65.50
54453;BME280;40363;52.270;10.546;2022-11-04T11:26:07;75733.00;;;-147.06;65.14
54453;BME280;40363;52.270;10.546;2022-11-04T11:28:35;75722.72;;;-147.06;64.73
54453;BME280;40363;52.270;10.546;2022-11-04T11:31:07;75716.53;;;-147.06;64.49
54453;BME280;40363;52.270;10.546;2022-11-04T11:33:44;75726.81;;;-147.06;64.69
54453;BME280;40363;52.270;10.546;2022-11-04T11:36:16;75739.16;;;-147.06;64.91
54453;BME280;40363;52.270;10.546;2022-11-04T11:38:53;75733.00;;;-147.06;64.05
54453;BME280;40363;52.270;10.546;2022-11-04T11:41:21;75759.69;;;-147.06;64.04
54453;BME280;40363;52.270;10.546;2022-11-04T11:43:57;75743.25;;;-147.06;64.54
54453;BME280;40363;52.270;10.546;2022-11-04T11:46:28;75733.00;;;-147.06;64.47
54453;BME280;40363;52.270;10.546;2022-11-04T11:48:56;75753.53;;;-147.06;64.85
54453;BME280;40363;52.270;10.546;2022-11-04T11:51:27;75749.44;;;-147.06;65.01
54453;BME280;40363;52.270;10.546;2022-11-04T11:54:15;75757.66;;;-147.06;65.23
54453;BME280;40363;52.270;10.546;2022-11-04T11:56:45;75761.75;;;-147.06;64.73
54453;BME280;40363;52.270;10.546;2022-11-04T11:59:27;75735.03;;;-147.06;64.11
54453;BME280;40363;52.270;10.546;2022-11-04T12:02:10;75733.00;;;-147.06;64.07
54453;BME280;40363;52.270;10.546;2022-11-04T12:04:41;75735.03;;;-147.06;64.22
54453;BME280;40363;52.270;10.546;2022-11-04T12:07:12;75724.75;;;-147.06;63.67
54453;BME280;40363;52.270;10.546;2022-11-04T12:09:46;75726.81;;;-147.06;63.59
54453;BME280;40363;52.270;10.546;2022-11-04T12:12:25;75712.44;;;-147.06;63.38
54453;BME280;40363;52.270;10.546;2022-11-04T12:15:12;75708.31;;;-147.06;63.38
54453;BME280;40363;52.270;10.546;2022-11-04T12:17:53;75716.53;;;-147.06;63.50
54453;BME280;40363;52.270;10.546;2022-11-04T12:20:34;75733.00;;;-147.06;63.56
54453;BME280;40363;52.270;10.546;2022-11-04T12:23:15;75733.00;;;-147.06;63.52
54453;BME280;40363;52.270;10.546;2022-11-04T12:25:47;75714.50;;;-147.06;63.41
54453;BME280;40363;52.270;10.546;2022-11-04T12:28:23;75737.09;;;-147.06;63.18
54453;BME280;40363;52.270;10.546;2022-11-04T12:31:01;75733.00;;;-147.06;63.33
54453;BME280;40363;52.270;10.546;2022-11-04T12:33:37;75739.16;;;-147.06;63.87
54453;BME280;40363;52.270;10.546;2022-11-04T12:36:16;75737.09;;;-147.06;63.36
54453;BME280;40363;52.270;10.546;2022-11-04T12:38:57;75739.16;;;-147.06;63.72
54453;BME280;40363;52.270;10.546;2022-11-04T12:41:35;75733.00;;;-147.06;63.32
54453;BME280;40363;52.270;10.546;2022-11-04T12:44:13;75737.09;;;-147.06;63.31
54453;BME280;40363;52.270;10.546;2022-11-04T12:46:49;75761.75;;;-147.06;63.58
54453;BME280;40363;52.270;10.546;2022-11-04T12:49:32;75741.22;;;-147.06;63.68
54453;BME280;40363;52.270;10.546;2022-11-04T12:52:05;75741.22;;;-147.06;63.94
54453;BME280;40363;52.270;10.546;2022-11-04T12:54:50;75737.09;;;-147.06;63.00
54453;BME280;40363;52.270;10.546;2022-11-04T12:57:26;75745.31;;;-147.06;63.01